createdAt,value
2022-09-16T00:01:41.965Z,100.00
2022-09-16T00:05:49.541Z,100.00
2022-09-16T00:09:51.337Z,100.00
2022-09-16T00:13:52.956Z,100.00
2022-09-16T00:17:54.377Z,100.00
2022-09-16T00:21:55.820Z,100.00
2022-09-16T00:25:57.233Z,100.00
2022-09-16T00:29:58.757Z,100.00
2022-09-16T00:34:00.294Z,100.00
2022-09-16T00:38:01.810Z,100.00
2022-09-16T00:42:04.007Z,100.00
2022-09-16T00:46:05.915Z,100.00
2022-09-16T00:50:12.258Z,100.00
2022-09-16T00:54:16.070Z,100.00
2022-09-16T00:58:28.160Z,100.00
2022-09-16T01:02:29.629Z,100.00
2022-09-16T01:06:34.744Z,100.00
2022-09-16T01:10:36.166Z,100.00
2022-09-16T01:14:53.288Z,100.00
2022-09-16T01:19:26.353Z,100.00
2022-09-16T01:23:33.505Z,100.00
2022-09-16T01:28:11.984Z,100.00
2022-09-16T01:32:30.432Z,100.00
2022-09-16T01:36:50.621Z,100.00
2022-09-16T01:41:07.089Z,100.00
2022-09-16T01:45:21.103Z,100.00
2022-09-16T01:49:34.178Z,100.00
2022-09-16T01:53:41.952Z,100.00
2022-09-16T01:57:48.505Z,100.00
2022-09-16T02:01:57.796Z,100.00
2022-09-16T02:06:04.020Z,100.00
2022-09-16T02:10:29.039Z,100.00
2022-09-16T02:14:34.454Z,100.00
2022-09-16T02:18:42.811Z,100.00
2022-09-16T02:22:48.412Z,100.00
2022-09-16T02:27:00.661Z,100.00
2022-09-16T02:31:07.334Z,100.00
2022-09-16T02:35:12.248Z,100.00
2022-09-16T02:39:20.711Z,100.00
2022-09-16T02:43:23.286Z,100.00
2022-09-16T02:47:43.324Z,100.00
2022-09-16T02:52:13.424Z,100.00
2022-09-16T02:56:28.401Z,100.00
2022-09-16T03:00:33.889Z,100.00
2022-09-16T03:04:36.148Z,100.00
2022-09-16T03:08:38.773Z,100.00
2022-09-16T03:13:09.551Z,100.00
2022-09-16T03:17:19.782Z,100.00
2022-09-16T03:21:34.397Z,100.00
2022-09-16T03:25:59.634Z,100.00
2022-09-16T03:30:07.678Z,100.00
2022-09-16T03:34:19.965Z,100.00
2022-09-16T03:38:21.563Z,100.00
2022-09-16T03:42:23.722Z,100.00
2022-09-16T03:46:26.537Z,100.00
2022-09-16T03:50:27.970Z,100.00
2022-09-16T03:54:29.400Z,100.00
2022-09-16T03:58:30.789Z,100.00
2022-09-16T04:02:32.318Z,100.00
2022-09-16T04:06:33.733Z,100.00
2022-09-16T04:10:35.201Z,100.00
2022-09-16T04:14:36.700Z,100.00
2022-09-16T04:18:38.112Z,100.00
2022-09-16T04:22:39.590Z,100.00
2022-09-16T04:26:41.865Z,100.00
2022-09-16T04:30:43.262Z,100.00
2022-09-16T04:34:45.301Z,100.00
2022-09-16T04:38:48.556Z,100.00
2022-09-16T04:42:50.696Z,100.00
2022-09-16T04:46:52.091Z,100.00
2022-09-16T04:50:54.128Z,100.00
2022-09-16T04:54:58.234Z,100.00
2022-09-16T04:59:02.199Z,100.00
2022-09-16T05:03:03.738Z,100.00
2022-09-16T05:07:05.203Z,100.00
2022-09-16T05:11:15.876Z,100.00
2022-09-16T05:15:17.332Z,100.00
2022-09-16T05:19:18.772Z,100.00
2022-09-16T05:23:20.181Z,100.00
2022-09-16T05:27:22.211Z,100.00
2022-09-16T05:31:30.397Z,100.00
2022-09-16T05:35:31.862Z,100.00
2022-09-16T05:39:34.002Z,100.00
2022-09-16T05:43:36.651Z,100.00
2022-09-16T05:47:41.025Z,100.00
2022-09-16T05:51:42.551Z,100.00
2022-09-16T05:55:53.683Z,100.00
2022-09-16T05:59:55.065Z,100.00
2022-09-16T06:03:56.985Z,100.00
2022-09-16T06:07:58.392Z,100.00
2022-09-16T06:12:02.108Z,100.00
2022-09-16T06:16:06.057Z,100.00
2022-09-16T06:20:13.911Z,100.00
2022-09-16T06:24:17.317Z,100.00
2022-09-16T06:28:18.799Z,100.00
2022-09-16T06:32:20.287Z,100.00
2022-09-16T06:36:27.920Z,100.00
2022-09-16T06:40:29.638Z,100.00
2022-09-16T06:44:31.020Z,100.00
2022-09-16T06:48:36.556Z,100.00
2022-09-16T06:52:38.039Z,100.00
2022-09-16T06:56:41.229Z,100.00
2022-09-16T07:00:43.013Z,100.00
2022-09-16T07:04:44.426Z,100.00
2022-09-16T07:08:46.594Z,100.00
2022-09-16T07:12:47.993Z,100.00
2022-09-16T07:16:50.820Z,100.00
2022-09-16T07:20:52.360Z,100.00
2022-09-16T07:24:54.236Z,100.00
2022-09-16T07:28:58.280Z,100.00
2022-09-16T07:33:00.404Z,100.00
2022-09-16T07:37:01.864Z,100.00
2022-09-16T07:41:11.347Z,100.00
2022-09-16T07:45:12.814Z,100.00
2022-09-16T07:49:15.168Z,100.00
2022-09-16T07:53:16.606Z,100.00
2022-09-16T07:57:18.368Z,100.00
2022-09-16T08:01:20.272Z,100.00
2022-09-16T08:05:21.715Z,100.00
2022-09-16T08:09:43.065Z,100.00
2022-09-16T08:13:46.368Z,100.00
2022-09-16T08:17:48.102Z,100.00
2022-09-16T08:21:49.587Z,100.00
2022-09-16T08:25:58.770Z,100.00
2022-09-16T08:30:00.163Z,100.00
2022-09-16T08:34:01.566Z,100.00
2022-09-16T08:38:03.206Z,100.00
2022-09-16T08:42:13.687Z,99.94
2022-09-16T08:46:20.749Z,100.00
2022-09-16T08:50:27.016Z,100.00
2022-09-16T08:54:37.259Z,96.96
2022-09-16T08:58:42.876Z,93.10
2022-09-16T09:03:08.089Z,90.53
2022-09-16T09:07:28.394Z,88.79
2022-09-16T09:11:43.963Z,88.55
2022-09-16T09:15:52.265Z,83.78
2022-09-16T09:20:12.109Z,81.95
2022-09-16T09:24:28.898Z,81.96
2022-09-16T09:28:45.636Z,78.72
2022-09-16T09:33:44.967Z,77.04
2022-09-16T09:38:13.369Z,77.35
2022-09-16T09:42:21.673Z,77.07
2022-09-16T09:46:33.137Z,73.29
2022-09-16T09:50:45.077Z,72.74
2022-09-16T09:54:51.276Z,73.26
2022-09-16T09:59:26.725Z,68.49
2022-09-16T10:03:29.765Z,67.28
2022-09-16T10:07:31.332Z,61.82
2022-09-16T10:11:33.263Z,62.97
2022-09-16T10:15:34.948Z,63.43
2022-09-16T10:19:50.647Z,66.27
2022-09-16T10:23:56.054Z,66.49
2022-09-16T10:28:01.313Z,62.43
2022-09-16T10:32:06.585Z,61.01
2022-09-16T10:36:10.989Z,62.23
2022-09-16T10:40:17.425Z,62.53
2022-09-16T10:44:33.507Z,60.68
2022-09-16T10:48:38.920Z,62.81
2022-09-16T10:52:45.679Z,63.62
2022-09-16T10:56:50.458Z,64.11
2022-09-16T11:01:26.933Z,62.35
2022-09-16T11:05:38.450Z,62.64
2022-09-16T11:09:54.307Z,65.31
2022-09-16T11:14:27.048Z,61.46
2022-09-16T11:18:37.700Z,59.15
2022-09-16T11:22:47.595Z,53.75
2022-09-16T11:27:03.564Z,52.28
2022-09-16T11:31:42.180Z,52.21
2022-09-16T11:36:01.679Z,53.78
2022-09-16T11:40:29.202Z,57.10
2022-09-16T11:45:06.753Z,57.47
2022-09-16T11:49:24.630Z,55.09
2022-09-16T11:53:49.002Z,52.33
2022-09-16T11:58:02.246Z,52.91
2022-09-16T12:02:25.012Z,53.18
2022-09-16T12:06:37.718Z,54.33
2022-09-16T12:10:46.949Z,52.45
2022-09-16T12:15:03.183Z,50.17
2022-09-16T12:19:17.763Z,51.44
2022-09-16T12:23:27.788Z,49.53
2022-09-16T12:28:03.319Z,49.08
2022-09-16T12:32:10.971Z,48.13
2022-09-16T12:36:19.095Z,48.62
2022-09-16T12:40:29.153Z,49.67
2022-09-16T12:44:55.314Z,47.69
2022-09-16T12:49:54.077Z,49.34
2022-09-16T12:54:25.404Z,49.23
2022-09-16T12:58:57.035Z,53.28
2022-09-16T13:03:14.056Z,47.77
2022-09-16T13:07:23.318Z,45.60
2022-09-16T13:15:56.877Z,44.15
2022-09-16T13:20:07.888Z,44.83
2022-09-16T13:24:31.648Z,43.29
2022-09-16T13:28:33.385Z,39.79
2022-09-16T13:32:57.170Z,41.59
2022-09-16T13:36:58.646Z,41.77
2022-09-16T13:41:01.611Z,41.16
2022-09-16T13:45:03.182Z,42.46
2022-09-16T13:49:16.141Z,45.83
2022-09-16T13:53:24.974Z,45.50
2022-09-16T13:57:56.199Z,46.54
2022-09-16T14:02:07.813Z,45.64
2022-09-16T14:06:37.524Z,44.17
2022-09-16T14:11:00.149Z,42.79
2022-09-16T14:15:02.199Z,41.13
2022-09-16T14:19:12.985Z,39.91
2022-09-16T14:23:18.003Z,39.63
2022-09-16T14:27:36.500Z,39.70
2022-09-16T14:31:38.114Z,39.82
2022-09-16T14:35:40.126Z,41.24
2022-09-16T14:39:43.120Z,43.50
2022-09-16T14:43:44.563Z,43.47
2022-09-16T14:47:51.495Z,43.00
2022-09-16T14:51:59.687Z,43.67
2022-09-16T14:56:01.284Z,43.43
2022-09-16T15:00:11.984Z,43.25
2022-09-16T15:04:27.847Z,43.14
2022-09-16T15:08:34.000Z,43.13
2022-09-16T15:12:43.186Z,42.88
2022-09-16T15:16:48.254Z,44.64
2022-09-16T15:21:13.370Z,46.25
2022-09-16T15:25:27.565Z,46.78
2022-09-16T15:29:46.397Z,47.26
2022-09-16T15:33:52.480Z,47.73
2022-09-16T15:37:55.626Z,47.51
2022-09-16T15:42:16.741Z,45.65
2022-09-16T15:46:22.088Z,45.04
2022-09-16T15:50:26.217Z,44.37
2022-09-16T15:54:37.512Z,44.10
2022-09-16T15:58:43.391Z,44.78
2022-09-16T16:02:51.978Z,45.25
2022-09-16T16:06:58.341Z,45.76
2022-09-16T16:11:20.666Z,46.29
2022-09-16T16:15:25.236Z,46.93
2022-09-16T16:19:28.637Z,46.57
2022-09-16T16:23:30.161Z,46.46
2022-09-16T16:27:32.279Z,46.69
2022-09-16T16:31:35.076Z,47.30
2022-09-16T16:35:36.680Z,47.92
2022-09-16T16:39:38.193Z,48.09
2022-09-16T16:43:40.117Z,49.27
2022-09-16T16:47:42.511Z,50.71
2022-09-16T16:51:44.321Z,50.93
2022-09-16T16:55:45.822Z,50.58
2022-09-16T16:59:47.707Z,50.08
2022-09-16T17:03:49.886Z,50.60
2022-09-16T17:07:51.473Z,51.59
2022-09-16T17:12:22.225Z,52.61
2022-09-16T17:16:25.284Z,54.65
2022-09-16T17:20:26.861Z,56.11
2022-09-16T17:24:48.648Z,56.78
2022-09-16T17:28:51.999Z,57.48
2022-09-16T17:32:53.485Z,57.08
2022-09-16T17:36:55.005Z,57.11
2022-09-16T17:41:12.795Z,57.47
2022-09-16T17:45:14.316Z,58.84
2022-09-16T17:49:23.905Z,59.95
2022-09-16T17:53:25.828Z,59.61
2022-09-16T17:57:32.476Z,60.65
2022-09-16T18:01:35.530Z,61.56
2022-09-16T18:05:41.074Z,62.31
2022-09-16T18:09:43.035Z,62.91
2022-09-16T18:13:48.869Z,63.07
2022-09-16T18:17:50.649Z,63.42
2022-09-16T18:21:52.773Z,63.97
2022-09-16T18:25:55.547Z,64.94
2022-09-16T18:29:57.850Z,64.46
2022-09-16T18:33:59.727Z,64.84
2022-09-16T18:38:01.244Z,65.38
2022-09-16T18:42:02.849Z,65.38
2022-09-16T18:46:12.892Z,65.97
2022-09-16T18:50:15.206Z,65.83
2022-09-16T18:54:20.318Z,65.39
2022-09-16T18:58:22.019Z,65.85
2022-09-16T19:02:23.664Z,65.52
2022-09-16T19:06:33.911Z,64.94
2022-09-16T19:10:35.438Z,65.61
2022-09-16T19:14:40.310Z,66.06
2022-09-16T19:18:42.082Z,66.24
2022-09-16T19:22:43.795Z,66.38
2022-09-16T19:26:47.204Z,67.07
2022-09-16T19:30:48.722Z,69.04
2022-09-16T19:34:50.188Z,71.03
2022-09-16T19:38:52.501Z,74.10
2022-09-16T19:42:54.038Z,76.42
2022-09-16T19:46:56.808Z,78.85
2022-09-16T19:50:58.371Z,84.48
2022-09-16T19:54:59.889Z,100.00
2022-09-16T19:59:08.014Z,100.00
2022-09-16T20:03:10.018Z,100.00
2022-09-16T20:07:17.488Z,100.00
2022-09-16T20:11:24.383Z,100.00
2022-09-16T20:15:26.049Z,100.00
2022-09-16T20:19:27.717Z,100.00
2022-09-16T20:23:29.601Z,100.00
2022-09-16T20:27:31.116Z,100.00
2022-09-16T20:31:36.279Z,100.00
2022-09-16T20:35:37.876Z,100.00
2022-09-16T20:39:41.159Z,100.00
2022-09-16T20:43:43.588Z,100.00
2022-09-16T20:47:45.026Z,100.00
2022-09-16T20:51:46.773Z,100.00
2022-09-16T20:55:48.364Z,100.00
2022-09-16T20:59:49.819Z,100.00
2022-09-16T21:03:53.416Z,100.00
2022-09-16T21:07:57.900Z,100.00
2022-09-16T21:12:00.060Z,100.00
2022-09-16T21:16:01.921Z,100.00
2022-09-16T21:20:03.488Z,100.00
2022-09-16T21:24:07.081Z,100.00
2022-09-16T21:28:08.763Z,100.00
2022-09-16T21:32:10.908Z,100.00
2022-09-16T21:36:13.736Z,100.00
2022-09-16T21:40:15.180Z,100.00
2022-09-16T21:44:17.489Z,100.00
2022-09-16T21:48:22.071Z,100.00
2022-09-16T21:52:23.587Z,100.00
2022-09-16T21:56:25.028Z,100.00
2022-09-16T22:00:26.418Z,100.00
2022-09-16T22:04:28.109Z,100.00
2022-09-16T22:08:29.511Z,100.00
2022-09-16T22:12:31.074Z,100.00
2022-09-16T22:16:34.534Z,100.00
2022-09-16T22:20:35.921Z,100.00
2022-09-16T22:24:37.346Z,100.00
2022-09-16T22:28:40.200Z,100.00
2022-09-16T22:32:41.668Z,100.00
2022-09-16T22:36:43.144Z,100.00
2022-09-16T22:40:44.582Z,100.00
2022-09-16T22:44:45.973Z,100.00
2022-09-16T22:48:50.393Z,100.00
2022-09-16T22:52:51.777Z,100.00
2022-09-16T22:56:53.189Z,100.00
2022-09-16T23:01:06.000Z,100.00
2022-09-16T23:05:07.865Z,100.00
2022-09-16T23:09:12.090Z,100.00
2022-09-16T23:13:13.617Z,100.00
2022-09-16T23:17:15.012Z,100.00
2022-09-16T23:21:18.877Z,100.00
2022-09-16T23:25:20.251Z,100.00
2022-09-16T23:29:21.830Z,100.00
2022-09-16T23:33:23.287Z,100.00
2022-09-16T23:37:24.688Z,100.00
2022-09-16T23:41:28.941Z,100.00
2022-09-16T23:45:30.393Z,100.00
2022-09-16T23:49:31.760Z,100.00
2022-09-16T23:53:37.089Z,100.00
2022-09-16T23:57:38.741Z,100.00
